Time;durP1;ratioP1;P1;durP2;ratioP2;P2;SDS_P1;SDS_P2;PMS_P1;PMS_P2;Temp;Humidity;BMP_temperature;BMP_pressure;BME280_temperature;BME280_humidity;BME280_pressure;Samples;Min_cycle;Max_cycle;Signal;HPM_P1;HPM_P2
2022/03/07 00:01:04;;;;;;;1.95;0.85;;;18.20;34.10;;;;;;5038749;28;20243;-85
2022/03/07 00:03:35;;;;;;;1.67;0.80;;;18.20;34.20;;;;;;5025026;28;20177;-85
2022/03/07 00:06:05;;;;;;;0.90;0.73;;;18.20;34.20;;;;;;5025152;28;20635;-84
2022/03/07 00:08:33;;;;;;;1.45;0.88;;;18.20;34.30;;;;;;5041649;28;20311;-84
2022/03/07 00:11:02;;;;;;;2.88;0.90;;;18.20;34.20;;;;;;5024997;28;20181;-84
2022/03/07 00:13:30;;;;;;;1.50;0.73;;;18.20;34.30;;;;;;5024894;28;20213;-84
2022/03/07 00:15:58;;;;;;;1.88;0.90;;;18.20;34.40;;;;;;5041350;28;20268;-85
2022/03/07 00:18:24;;;;;;;1.98;0.98;;;18.20;34.40;;;;;;5041186;28;20189;-85
2022/03/07 00:20:55;;;;;;;2.78;0.70;;;18.10;34.40;;;;;;5058514;28;20173;-84
2022/03/07 00:23:25;;;;;;;1.95;0.70;;;18.10;34.40;;;;;;5041525;28;20187;-84
2022/03/07 00:25:52;;;;;;;3.72;0.80;;;18.10;34.40;;;;;;5041330;28;20192;-85
2022/03/07 00:28:20;;;;;;;3.00;0.90;;;18.10;34.50;;;;;;5057682;28;20212;-84
2022/03/07 00:30:48;;;;;;;1.58;0.60;;;18.10;34.50;;;;;;5057780;28;20719;-83
2022/03/07 00:33:14;;;;;;;1.52;0.80;;;18.00;34.50;;;;;;5024332;28;20185;-84
2022/03/07 00:35:41;;;;;;;3.35;1.15;;;18.10;34.60;;;;;;5058171;28;20352;-85
2022/03/07 00:38:11;;;;;;;0.82;0.63;;;18.10;34.60;;;;;;5024649;28;20193;-84
2022/03/07 00:40:41;;;;;;;1.67;0.90;;;18.10;34.60;;;;;;5041255;28;20177;-84
2022/03/07 00:43:10;;;;;;;1.95;0.85;;;18.10;34.60;;;;;;5040758;28;20536;-84
2022/03/07 00:45:38;;;;;;;1.00;0.73;;;18.10;34.70;;;;;;5024217;28;20268;-85
2022/03/07 00:48:07;;;;;;;1.38;0.80;;;18.10;34.70;;;;;;5040449;28;20212;-84
2022/03/07 00:50:35;;;;;;;1.95;0.82;;;18.10;34.70;;;;;;5023963;28;20191;-84
2022/03/07 00:53:03;;;;;;;2.72;0.90;;;18.10;34.90;;;;;;5040820;28;20181;-85
2022/03/07 00:55:31;;;;;;;2.05;0.80;;;18.10;34.90;;;;;;5040718;28;20181;-84
2022/03/07 00:57:58;;;;;;;1.55;0.90;;;18.10;34.80;;;;;;5040312;28;20199;-84
2022/03/07 01:00:23;;;;;;;1.67;1.05;;;18.00;34.80;;;;;;5057700;28;20181;-85
2022/03/07 01:02:49;;;;;;;3.10;0.90;;;18.00;34.80;;;;;;5074471;28;20150;-85
2022/03/07 01:05:15;;;;;;;3.08;0.70;;;18.10;34.90;;;;;;5041196;28;20612;-84
2022/03/07 01:07:40;;;;;;;1.95;0.70;;;18.00;34.90;;;;;;5057772;28;20211;-84
2022/03/07 01:10:06;;;;;;;1.20;0.80;;;18.10;35.00;;;;;;5057891;28;20197;-84
2022/03/07 01:12:35;;;;;;;3.67;0.88;;;18.00;34.90;;;;;;5056805;28;20508;-84
2022/03/07 01:15:05;;;;;;;1.15;0.80;;;18.00;35.00;;;;;;5039928;28;20264;-84
2022/03/07 01:17:34;;;;;;;4.00;1.40;;;18.00;35.00;;;;;;5023759;28;20650;-85
2022/03/07 01:20:03;;;;;;;3.72;0.93;;;18.00;35.00;;;;;;5040170;28;20238;-84
2022/03/07 01:22:29;;;;;;;2.10;0.80;;;18.00;35.10;;;;;;5040611;28;20180;-83
2022/03/07 01:24:55;;;;;;;1.08;0.70;;;18.00;35.10;;;;;;5057490;28;20153;-85
2022/03/07 01:27:20;;;;;;;1.60;0.80;;;17.90;35.10;;;;;;5057638;28;20227;-84
2022/03/07 01:29:46;;;;;;;1.08;0.80;;;18.00;35.20;;;;;;5074337;28;20197;-86
2022/03/07 01:32:11;;;;;;;2.60;0.90;;;18.00;35.20;;;;;;5040585;28;20219;-84
2022/03/07 01:34:37;;;;;;;1.90;0.98;;;18.00;35.30;;;;;;5056915;28;20225;-84
2022/03/07 01:37:03;;;;;;;1.75;0.77;;;18.00;35.20;;;;;;5073568;28;20180;-84
2022/03/07 01:39:28;;;;;;;4.40;0.93;;;18.00;35.20;;;;;;5073698;28;20164;-84
2022/03/07 01:41:56;;;;;;;2.58;1.00;;;18.00;35.30;;;;;;5057097;28;20169;-84
2022/03/07 01:44:25;;;;;;;0.73;0.68;;;17.90;35.10;;;;;;5057034;28;20548;-86
2022/03/07 01:46:51;;;;;;;1.58;0.75;;;18.00;35.30;;;;;;5073663;28;20156;-84
2022/03/07 01:49:17;;;;;;;2.45;0.90;;;17.90;35.20;;;;;;5073573;28;20166;-83
2022/03/07 01:51:45;;;;;;;1.13;0.80;;;18.00;35.30;;;;;;5073522;28;20162;-85
2022/03/07 01:54:11;;;;;;;1.77;0.70;;;18.00;35.40;;;;;;5039522;28;20239;-84
2022/03/07 01:56:38;;;;;;;1.48;0.70;;;17.90;35.30;;;;;;5056947;28;20195;-85
2022/03/07 01:59:05;;;;;;;1.35;0.68;;;18.00;35.40;;;;;;5057028;28;20561;-85
2022/03/07 02:01:31;;;;;;;1.25;0.80;;;18.00;35.40;;;;;;5056572;28;20539;-84
2022/03/07 02:03:58;;;;;;;1.15;0.70;;;17.90;35.40;;;;;;5056653;28;20573;-84
2022/03/07 02:06:24;;;;;;;1.25;0.70;;;17.90;35.50;;;;;;5056697;28;20600;-84
2022/03/07 02:08:51;;;;;;;2.25;0.80;;;17.90;35.40;;;;;;5039839;28;20189;-85
2022/03/07 02:11:16;;;;;;;1.38;0.80;;;17.90;35.50;;;;;;5056605;28;20627;-84
2022/03/07 02:13:42;;;;;;;1.00;0.70;;;17.90;35.50;;;;;;5056432;28;20146;-86
2022/03/07 02:16:09;;;;;;;2.00;0.77;;;17.90;35.50;;;;;;5072885;28;20608;-85
2022/03/07 02:18:34;;;;;;;2.55;0.60;;;17.90;35.60;;;;;;5040107;28;20246;-84
2022/03/07 02:21:07;;;;;;;3.60;0.80;;;17.90;35.60;;;;;;5072960;28;20182;-84
2022/03/07 02:23:37;;;;;;;0.75;0.68;;;18.00;35.90;;;;;;5056638;28;20162;-84
2022/03/07 02:26:12;;;;;;;1.90;1.00;;;17.90;35.70;;;;;;5022262;28;20188;-84
2022/03/07 02:28:41;;;;;;;2.40;0.85;;;17.90;35.70;;;;;;5039071;28;20223;-85
2022/03/07 02:31:07;;;;;;;2.53;0.70;;;17.90;35.60;;;;;;5038861;28;20711;-84
2022/03/07 02:33:33;;;;;;;1.00;0.80;;;17.90;35.80;;;;;;5057553;28;20233;-83
2022/03/07 02:35:59;;;;;;;1.60;0.82;;;17.90;35.80;;;;;;5059473;28;20199;-84
2022/03/07 02:38:25;;;;;;;2.10;0.80;;;17.90;35.80;;;;;;5059630;28;20195;-84
2022/03/07 02:40:50;;;;;;;2.05;0.68;;;17.90;35.90;;;;;;5059349;28;20153;-84
2022/03/07 02:43:16;;;;;;;1.23;0.80;;;17.80;35.90;;;;;;5059244;28;20161;-83
2022/03/07 02:45:42;;;;;;;1.50;0.65;;;17.90;36.00;;;;;;5059097;28;20161;-84
2022/03/07 02:48:09;;;;;;;1.27;0.80;;;17.80;35.90;;;;;;5042523;28;20566;-84
2022/03/07 02:50:34;;;;;;;1.08;0.70;;;17.80;36.00;;;;;;5041501;28;20200;-85
2022/03/07 02:53:01;;;;;;;1.10;0.75;;;17.90;36.00;;;;;;5059010;28;20165;-84
2022/03/07 02:55:31;;;;;;;1.23;0.82;;;17.90;36.10;;;;;;5008880;28;20271;-84
2022/03/07 02:57:59;;;;;;;1.98;0.63;;;17.90;36.10;;;;;;5009051;28;20665;-85
2022/03/07 03:00:26;;;;;;;0.90;0.55;;;17.80;36.10;;;;;;5009105;28;20254;-83
2022/03/07 03:02:51;;;;;;;1.33;0.88;;;17.80;36.10;;;;;;5041380;28;20177;-84
2022/03/07 03:05:17;;;;;;;2.85;1.02;;;17.80;36.10;;;;;;5075727;28;20521;-84
2022/03/07 03:07:47;;;;;;;2.63;1.05;;;17.80;36.10;;;;;;5058641;28;20195;-84
2022/03/07 03:10:12;;;;;;;2.25;0.60;;;17.80;36.10;;;;;;5059870;28;20161;-84
2022/03/07 03:12:39;;;;;;;1.35;0.90;;;17.80;36.10;;;;;;5059020;28;20631;-83
2022/03/07 03:15:10;;;;;;;1.15;0.80;;;17.80;36.20;;;;;;5025022;28;20559;-85
2022/03/07 03:17:39;;;;;;;1.42;0.80;;;17.80;36.20;;;;;;5041616;28;20548;-84
2022/03/07 03:20:11;;;;;;;1.75;1.02;;;17.90;36.30;;;;;;5059173;28;20156;-83
2022/03/07 03:22:40;;;;;;;0.90;0.70;;;17.80;36.30;;;;;;5008777;28;20218;-83
2022/03/07 03:25:08;;;;;;;1.45;0.70;;;17.80;36.20;;;;;;5008904;28;20574;-85
2022/03/07 03:27:40;;;;;;;1.67;0.90;;;17.80;36.30;;;;;;5042239;28;20214;-85
2022/03/07 03:30:10;;;;;;;1.63;0.80;;;17.80;36.40;;;;;;5008798;28;20553;-85
2022/03/07 03:32:39;;;;;;;2.65;0.80;;;17.80;36.40;;;;;;5041931;28;20180;-84
2022/03/07 03:35:05;;;;;;;2.10;0.75;;;17.80;36.40;;;;;;5041080;28;20568;-84
2022/03/07 03:37:36;;;;;;;3.08;0.90;;;17.80;36.40;;;;;;5062305;28;20161;-85
2022/03/07 03:40:09;;;;;;;1.50;0.80;;;17.80;36.40;;;;;;4997826;28;20188;-85
2022/03/07 03:42:38;;;;;;;2.20;0.80;;;17.80;36.50;;;;;;5046020;28;20180;-85
2022/03/07 03:45:08;;;;;;;0.70;0.70;;;17.80;36.50;;;;;;5029068;28;20275;-84
2022/03/07 03:47:39;;;;;;;2.05;0.80;;;17.80;36.50;;;;;;5029752;28;20581;-85
2022/03/07 03:50:07;;;;;;;2.08;0.80;;;17.80;36.50;;;;;;5045755;28;20246;-84
2022/03/07 03:52:32;;;;;;;1.55;0.70;;;17.80;36.50;;;;;;5080397;28;20168;-85
2022/03/07 03:54:58;;;;;;;2.33;0.95;;;17.80;36.50;;;;;;5064261;28;20153;-85
2022/03/07 03:57:25;;;;;;;1.42;0.73;;;17.80;36.60;;;;;;5065060;28;20164;-84
2022/03/07 03:59:53;;;;;;;1.35;0.90;;;17.80;36.60;;;;;;5085385;28;20231;-85
2022/03/07 04:02:26;;;;;;;1.38;0.75;;;17.80;36.60;;;;;;5051645;28;20177;-85
2022/03/07 04:04:55;;;;;;;2.45;0.70;;;17.80;36.60;;;;;;5035421;28;20259;-84
2022/03/07 04:07:25;;;;;;;1.15;0.73;;;17.70;36.40;;;;;;5051331;28;20559;-84
2022/03/07 04:09:54;;;;;;;1.35;0.70;;;17.80;36.60;;;;;;5031969;28;20188;-85
2022/03/07 04:12:22;;;;;;;1.20;0.60;;;17.80;36.60;;;;;;5015228;28;20229;-83
2022/03/07 04:14:51;;;;;;;1.15;0.60;;;17.80;36.60;;;;;;5031450;28;20180;-84
2022/03/07 04:17:19;;;;;;;1.02;0.70;;;17.80;36.70;;;;;;5032135;28;20234;-83
2022/03/07 04:19:46;;;;;;;2.03;0.60;;;17.70;36.70;;;;;;5031708;28;20184;-83
2022/03/07 04:22:15;;;;;;;1.98;0.55;;;17.70;36.70;;;;;;5079068;28;20165;-84
2022/03/07 04:24:40;;;;;;;1.90;0.73;;;17.70;37.30;;;;;;5046126;28;20259;-83
2022/03/07 04:27:09;;;;;;;0.75;0.68;;;17.70;36.80;;;;;;5061979;28;20730;-84
2022/03/07 04:29:35;;;;;;;1.95;0.77;;;17.70;36.70;;;;;;5096719;28;20164;-85
2022/03/07 04:32:00;;;;;;;0.88;0.50;;;17.70;36.70;;;;;;5061890;28;20164;-85
2022/03/07 04:34:28;;;;;;;2.60;0.80;;;17.70;36.80;;;;;;5057907;28;20577;-85
2022/03/07 04:36:56;;;;;;;1.33;0.77;;;17.70;36.70;;;;;;5041054;28;20182;-83
2022/03/07 04:39:27;;;;;;;0.70;0.60;;;17.70;36.90;;;;;;5024648;28;20636;-84
2022/03/07 04:41:57;;;;;;;1.63;0.70;;;17.80;36.90;;;;;;5040978;28;20184;-83
2022/03/07 04:44:28;;;;;;;1.30;0.80;;;17.70;36.90;;;;;;5057558;28;20181;-85
2022/03/07 04:46:55;;;;;;;1.45;0.70;;;17.70;36.90;;;;;;5057175;28;20234;-84
2022/03/07 04:49:23;;;;;;;1.23;0.65;;;17.70;36.90;;;;;;5041010;28;20204;-83
2022/03/07 04:51:48;;;;;;;2.38;0.55;;;17.70;36.90;;;;;;5040557;28;20177;-82
2022/03/07 04:54:15;;;;;;;0.90;0.70;;;17.70;36.90;;;;;;5041475;28;20230;-83
2022/03/07 04:56:43;;;;;;;1.20;0.70;;;17.70;37.00;;;;;;5058398;28;20169;-85
2022/03/07 04:59:13;;;;;;;0.98;0.70;;;17.70;37.00;;;;;;5058275;28;20173;-83
2022/03/07 05:01:38;;;;;;;2.20;0.70;;;17.70;37.00;;;;;;5057786;28;20169;-84
2022/03/07 05:04:04;;;;;;;0.70;0.60;;;17.70;37.00;;;;;;5074589;28;20502;-84
2022/03/07 05:06:29;;;;;;;1.88;0.65;;;17.70;37.00;;;;;;5057854;28;20548;-84
2022/03/07 05:08:57;;;;;;;1.65;0.77;;;17.70;37.00;;;;;;5057673;28;20193;-84
2022/03/07 05:11:23;;;;;;;1.35;0.50;;;17.70;37.00;;;;;;5057768;28;20162;-83
2022/03/07 05:13:51;;;;;;;1.23;0.70;;;17.70;37.00;;;;;;5041264;28;20226;-84
2022/03/07 05:16:20;;;;;;;1.20;0.80;;;17.70;37.10;;;;;;5040270;28;20191;-83
2022/03/07 05:18:49;;;;;;;1.25;0.70;;;17.70;37.10;;;;;;5040066;28;20189;-85
2022/03/07 05:21:20;;;;;;;1.10;0.70;;;17.70;37.10;;;;;;5040373;28;20201;-84
2022/03/07 05:23:47;;;;;;;1.35;0.70;;;17.70;37.10;;;;;;5057013;28;20185;-84
2022/03/07 05:26:13;;;;;;;1.08;0.63;;;17.70;36.70;;;;;;5057545;28;20553;-84
2022/03/07 05:28:39;;;;;;;0.55;0.50;;;17.70;36.50;;;;;;5057569;28;20214;-83
2022/03/07 05:31:12;;;;;;;0.52;0.50;;;17.80;36.40;;;;;;5058184;28;20158;-83
2022/03/07 05:33:38;;;;;;;1.00;0.70;;;17.80;37.10;;;;;;5076246;28;20181;-84
2022/03/07 05:36:05;;;;;;;1.33;0.70;;;17.90;36.10;;;;;;5045062;28;20164;-84
2022/03/07 05:38:32;;;;;;;1.83;0.70;;;18.00;36.00;;;;;;5062267;28;20183;-85
2022/03/07 05:41:04;;;;;;;0.90;0.70;;;18.00;35.90;;;;;;5044586;28;20157;-84
2022/03/07 05:43:32;;;;;;;1.48;0.60;;;18.00;36.00;;;;;;5061252;28;20607;-84
2022/03/07 05:45:59;;;;;;;1.00;0.65;;;18.00;36.00;;;;;;5061277;28;20682;-85
2022/03/07 05:48:25;;;;;;;0.95;0.60;;;18.00;35.80;;;;;;5044760;28;20231;-86
2022/03/07 05:50:51;;;;;;;2.00;0.70;;;18.10;35.80;;;;;;5061023;28;20166;-84
2022/03/07 05:53:22;;;;;;;0.63;0.50;;;18.10;35.70;;;;;;5060584;28;20165;-85
2022/03/07 05:55:52;;;;;;;0.73;0.70;;;18.10;35.50;;;;;;5044679;28;20267;-84
2022/03/07 05:58:22;;;;;;;0.75;0.63;;;18.20;35.70;;;;;;5026350;28;20189;-84
2022/03/07 06:00:50;;;;;;;0.65;0.60;;;18.10;35.60;;;;;;5043007;28;20724;-85
2022/03/07 06:03:18;;;;;;;0.85;0.70;;;18.10;35.30;;;;;;5010605;28;20654;-84
2022/03/07 06:05:46;;;;;;;0.60;0.50;;;18.10;35.30;;;;;;5009858;28;20191;-84
2022/03/07 06:08:17;;;;;;;1.17;0.50;;;18.20;35.30;;;;;;5026221;28;20234;-85
2022/03/07 06:10:47;;;;;;;0.82;0.60;;;18.30;35.10;;;;;;5010803;28;20184;-85
2022/03/07 06:13:15;;;;;;;1.80;0.50;;;18.20;35.30;;;;;;5026717;28;20264;-84
2022/03/07 06:15:45;;;;;;;1.10;0.73;;;18.20;35.20;;;;;;5009924;28;20180;-84
2022/03/07 06:18:12;;;;;;;1.20;0.70;;;18.20;35.20;;;;;;5043047;28;20710;-84
2022/03/07 06:20:40;;;;;;;0.50;0.50;;;18.30;35.10;;;;;;5026792;28;20208;-84
2022/03/07 06:23:06;;;;;;;0.80;0.63;;;18.20;35.00;;;;;;5043008;28;20227;-84
2022/03/07 06:25:34;;;;;;;0.68;0.50;;;18.20;34.90;;;;;;5061992;28;20164;-86
2022/03/07 06:28:01;;;;;;;0.73;0.50;;;18.30;35.00;;;;;;5047098;28;20338;-85
2022/03/07 06:30:26;;;;;;;1.80;0.52;;;18.30;34.90;;;;;;5049243;28;20251;-83
2022/03/07 06:32:52;;;;;;;0.55;0.52;;;18.30;35.00;;;;;;5067944;28;20651;-84
2022/03/07 06:35:18;;;;;;;0.80;0.60;;;18.30;34.90;;;;;;5065203;28;20236;-84
2022/03/07 06:37:46;;;;;;;1.02;0.60;;;18.30;34.70;;;;;;5047349;28;20195;-84
2022/03/07 06:40:12;;;;;;;0.88;0.50;;;18.40;34.80;;;;;;5066429;28;20165;-84
2022/03/07 06:42:39;;;;;;;2.35;0.60;;;18.30;34.80;;;;;;5060886;28;20193;-84
2022/03/07 06:45:06;;;;;;;0.60;0.50;;;18.30;34.60;;;;;;5056436;28;20169;-84
2022/03/07 06:47:32;;;;;;;0.65;0.65;;;18.40;34.70;;;;;;5038630;28;20213;-85
2022/03/07 06:49:58;;;;;;;0.95;0.52;;;18.40;34.60;;;;;;5056448;28;20154;-83
2022/03/07 06:52:26;;;;;;;0.80;0.60;;;18.40;34.50;;;;;;5040168;28;20620;-84
2022/03/07 06:54:51;;;;;;;0.50;0.50;;;18.40;34.60;;;;;;5039854;28;20181;-83
2022/03/07 06:57:22;;;;;;;0.77;0.40;;;18.40;34.40;;;;;;5056393;28;20157;-83
2022/03/07 06:59:49;;;;;;;1.70;0.60;;;18.40;34.50;;;;;;5055911;28;20643;-84
2022/03/07 07:02:17;;;;;;;1.35;0.60;;;18.40;34.50;;;;;;5056911;28;20510;-84
2022/03/07 07:04:43;;;;;;;1.13;0.80;;;18.50;34.50;;;;;;5056323;28;20232;-84
2022/03/07 07:07:12;;;;;;;1.00;0.60;;;18.50;34.70;;;;;;5075481;28;20623;-83
2022/03/07 07:09:41;;;;;;;3.78;0.70;;;18.50;34.70;;;;;;5024725;28;20181;-84
2022/03/07 07:12:10;;;;;;;0.93;0.55;;;18.50;34.60;;;;;;5039738;28;20231;-85
2022/03/07 07:14:40;;;;;;;1.08;0.90;;;18.60;34.60;;;;;;5023640;28;20185;-85
2022/03/07 07:17:09;;;;;;;1.42;0.60;;;18.50;34.70;;;;;;5040017;28;20184;-84
2022/03/07 07:19:37;;;;;;;1.15;0.68;;;18.50;35.30;;;;;;5024169;28;20234;-84
2022/03/07 07:22:06;;;;;;;1.55;0.60;;;18.50;34.60;;;;;;5022665;28;20185;-83
2022/03/07 07:24:34;;;;;;;0.60;0.60;;;18.60;34.60;;;;;;5055918;28;20191;-84
2022/03/07 07:27:04;;;;;;;0.52;0.50;;;18.60;34.60;;;;;;5039081;28;20193;-85
2022/03/07 07:29:32;;;;;;;0.80;0.60;;;18.70;34.40;;;;;;5056493;28;20200;-85
2022/03/07 07:32:02;;;;;;;0.90;0.60;;;18.60;34.40;;;;;;5055752;28;20181;-83
2022/03/07 07:34:30;;;;;;;1.73;0.50;;;18.60;34.40;;;;;;5021487;28;20255;-82
2022/03/07 07:36:57;;;;;;;0.93;0.60;;;18.60;34.40;;;;;;5054969;28;20238;-83
2022/03/07 07:39:25;;;;;;;1.65;0.70;;;18.60;34.40;;;;;;5038028;28;20181;-84
2022/03/07 07:41:52;;;;;;;0.73;0.50;;;18.60;34.40;;;;;;5021704;28;20272;-83
2022/03/07 07:44:18;;;;;;;0.93;0.50;;;18.70;34.20;;;;;;5037968;28;20631;-88
2022/03/07 07:46:45;;;;;;;1.35;0.70;;;18.70;34.20;;;;;;5056411;28;20688;-82
2022/03/07 07:49:12;;;;;;;0.88;0.68;;;18.60;34.20;;;;;;5021410;28;20303;-84
2022/03/07 07:51:39;;;;;;;0.70;0.68;;;18.70;34.20;;;;;;5021969;28;20181;-84
2022/03/07 07:54:06;;;;;;;1.48;0.60;;;18.70;34.20;;;;;;5022601;28;20231;-86
2022/03/07 07:56:33;;;;;;;1.10;1.00;;;18.70;34.20;;;;;;5057334;28;20260;-82
2022/03/07 07:59:00;;;;;;;4.05;0.93;;;18.70;34.40;;;;;;5024070;28;20667;-85
2022/03/07 08:01:28;;;;;;;2.70;0.75;;;18.70;34.40;;;;;;5025190;28;20224;-84
2022/03/07 08:03:55;;;;;;;1.25;0.70;;;18.70;34.40;;;;;;5042716;28;20191;-84
2022/03/07 08:06:22;;;;;;;2.42;1.00;;;18.80;34.40;;;;;;5041514;28;20181;-85
2022/03/07 08:08:52;;;;;;;1.50;0.80;;;18.80;34.30;;;;;;5041056;28;20212;-86
2022/03/07 08:11:22;;;;;;;1.83;0.70;;;18.70;34.20;;;;;;5025954;28;20239;-87
2022/03/07 08:13:49;;;;;;;1.13;0.65;;;18.70;34.30;;;;;;5029000;28;20178;-84
2022/03/07 08:16:20;;;;;;;0.75;0.70;;;18.70;34.40;;;;;;5076853;28;20168;-87
2022/03/07 08:18:46;;;;;;;1.08;0.68;;;18.70;34.50;;;;;;5043046;28;20237;-82
2022/03/07 08:21:12;;;;;;;1.75;0.70;;;18.80;34.10;;;;;;5076334;28;20161;-84
2022/03/07 08:23:42;;;;;;;2.55;0.65;;;18.80;34.20;;;;;;5061632;28;20153;-84
2022/03/07 08:26:08;;;;;;;2.55;0.75;;;18.80;34.30;;;;;;5045157;28;20186;-84
2022/03/07 08:28:38;;;;;;;2.72;0.80;;;18.80;34.30;;;;;;5079284;28;20628;-85
2022/03/07 08:31:21;;;;;;;2.35;0.80;;;18.80;34.20;;;;;;5045874;28;20201;-82
2022/03/07 08:33:46;;;;;;;3.78;0.70;;;18.80;34.30;;;;;;5070007;28;20224;-83
2022/03/07 08:36:12;;;;;;;1.25;0.90;;;18.80;34.40;;;;;;5081697;28;20581;-81
2022/03/07 08:38:42;;;;;;;0.73;0.73;;;18.80;34.40;;;;;;5066993;28;20187;-82
2022/03/07 08:41:08;;;;;;;1.15;0.73;;;18.80;34.50;;;;;;5049631;28;20188;-80
2022/03/07 08:43:39;;;;;;;1.42;0.90;;;18.80;34.40;;;;;;5068226;28;20616;-80
2022/03/07 08:46:05;;;;;;;1.20;0.60;;;18.80;34.50;;;;;;5034832;28;20181;-87
2022/03/07 08:48:30;;;;;;;1.33;0.65;;;18.90;34.60;;;;;;5084349;28;20188;-82
2022/03/07 08:51:02;;;;;;;1.17;0.90;;;18.90;34.50;;;;;;5051199;28;20156;-83
2022/03/07 08:53:28;;;;;;;1.73;0.90;;;18.80;34.50;;;;;;5067664;28;20526;-86
2022/03/07 08:55:55;;;;;;;2.00;0.70;;;18.80;34.40;;;;;;5068686;28;20263;-85
2022/03/07 08:58:27;;;;;;;1.67;0.73;;;18.90;34.20;;;;;;5017568;28;20193;-84
2022/03/07 09:00:55;;;;;;;3.50;0.90;;;19.00;34.10;;;;;;5032551;28;20187;-82
2022/03/07 09:03:25;;;;;;;0.75;0.70;;;19.10;34.00;;;;;;5031192;28;20188;-85
2022/03/07 09:05:55;;;;;;;1.70;0.75;;;19.10;34.00;;;;;;5032264;28;20177;-85
2022/03/07 09:08:21;;;;;;;1.23;0.75;;;19.00;34.00;;;;;;5031309;28;20301;-84
2022/03/07 09:10:48;;;;;;;0.70;0.60;;;19.00;34.00;;;;;;5065065;28;20164;-82
2022/03/07 09:13:16;;;;;;;1.15;0.80;;;19.00;34.10;;;;;;5032326;28;20245;-82
2022/03/07 09:15:45;;;;;;;0.77;0.77;;;18.90;34.20;;;;;;5048732;28;20719;-82
2022/03/07 09:18:15;;;;;;;0.68;0.68;;;18.90;34.40;;;;;;5048133;28;20314;-83
2022/03/07 09:20:42;;;;;;;2.55;0.98;;;18.90;34.40;;;;;;5048583;28;20260;-85
2022/03/07 09:23:10;;;;;;;1.80;0.80;;;19.00;34.30;;;;;;5048722;28;20181;-84
2022/03/07 09:25:37;;;;;;;1.10;0.80;;;19.10;34.40;;;;;;5046925;28;20714;-81
2022/03/07 09:28:05;;;;;;;1.33;0.93;;;19.10;34.30;;;;;;5029527;28;20216;-83
2022/03/07 09:30:32;;;;;;;1.58;0.77;;;19.10;34.40;;;;;;5029885;28;20211;-84
2022/03/07 09:33:03;;;;;;;4.22;1.08;;;19.20;34.20;;;;;;5029037;28;20177;-86
2022/03/07 09:35:31;;;;;;;0.70;0.60;;;19.20;34.10;;;;;;5030349;28;20204;-85
2022/03/07 09:37:58;;;;;;;1.15;0.70;;;19.20;34.10;;;;;;5018135;28;20374;-84
2022/03/07 09:40:25;;;;;;;1.10;0.90;;;19.30;34.00;;;;;;5012957;28;20234;-85
2022/03/07 09:42:52;;;;;;;0.95;0.85;;;19.20;34.10;;;;;;5028633;28;20215;-86
2022/03/07 09:45:19;;;;;;;1.30;0.90;;;19.20;34.00;;;;;;5028097;28;20212;-84
2022/03/07 09:47:48;;;;;;;0.65;0.65;;;19.20;34.20;;;;;;5027842;28;20216;-82
2022/03/07 09:50:14;;;;;;;0.88;0.57;;;19.20;34.20;;;;;;5030041;28;20188;-83
2022/03/07 09:52:43;;;;;;;3.63;1.33;;;19.20;34.20;;;;;;5045199;28;20262;-84
2022/03/07 09:55:13;;;;;;;1.85;0.93;;;19.30;34.30;;;;;;5077558;28;20153;-86
2022/03/07 09:57:47;;;;;;;1.13;0.60;;;19.20;34.30;;;;;;5033974;28;20184;-82
2022/03/07 10:00:15;;;;;;;1.92;0.82;;;19.20;34.20;;;;;;5027881;28;20176;-82
2022/03/07 10:02:54;;;;;;;1.35;0.80;;;19.20;34.30;;;;;;5077730;28;20149;-85
2022/03/07 10:05:19;;;;;;;2.08;0.80;;;19.20;34.40;;;;;;5096296;28;20164;-85
2022/03/07 10:07:46;;;;;;;1.75;0.82;;;19.20;34.40;;;;;;5043760;28;20663;-84
2022/03/07 10:10:12;;;;;;;1.33;0.90;;;19.20;34.40;;;;;;5076829;28;20171;-83
2022/03/07 10:12:53;;;;;;;2.20;0.90;;;19.30;34.50;;;;;;5076932;28;20240;-85
2022/03/07 10:15:20;;;;;;;2.85;0.93;;;19.20;34.60;;;;;;5060194;28;20248;-84
2022/03/07 10:17:49;;;;;;;1.75;0.80;;;19.20;34.60;;;;;;5060538;28;20201;-84
2022/03/07 10:20:19;;;;;;;1.75;0.80;;;19.30;34.40;;;;;;5061670;28;20183;-82
2022/03/07 10:22:48;;;;;;;1.00;0.85;;;19.20;34.20;;;;;;5078653;28;20153;-82
2022/03/07 10:25:13;;;;;;;1.20;0.80;;;19.20;34.40;;;;;;5078663;28;20155;-84
2022/03/07 10:27:41;;;;;;;0.85;0.77;;;19.20;34.20;;;;;;5062545;28;20268;-84
2022/03/07 10:30:12;;;;;;;1.20;0.88;;;19.20;34.30;;;;;;5062447;28;20167;-85
2022/03/07 10:32:38;;;;;;;0.90;0.70;;;19.20;34.30;;;;;;5082176;28;20156;-84
2022/03/07 10:35:08;;;;;;;1.75;0.77;;;19.30;34.30;;;;;;5065649;28;20220;-82
2022/03/07 10:37:35;;;;;;;0.85;0.60;;;19.20;34.30;;;;;;5016086;28;20543;-84
2022/03/07 10:40:11;;;;;;;1.00;0.85;;;19.30;34.30;;;;;;5084174;28;20153;-83
2022/03/07 10:42:36;;;;;;;1.45;0.88;;;19.20;34.30;;;;;;5084922;28;20235;-83
2022/03/07 10:45:08;;;;;;;3.28;0.70;;;19.20;34.30;;;;;;5080388;28;20664;-83
2022/03/07 10:47:33;;;;;;;0.98;0.75;;;19.30;34.30;;;;;;5013535;28;20265;-84
2022/03/07 10:50:04;;;;;;;2.45;1.00;;;19.30;34.30;;;;;;5080875;28;20540;-84
2022/03/07 10:52:36;;;;;;;0.70;0.70;;;19.20;34.40;;;;;;5031827;28;20203;-83
2022/03/07 10:55:04;;;;;;;2.28;0.80;;;19.30;34.40;;;;;;5049857;28;20215;-84
2022/03/07 10:57:35;;;;;;;2.28;0.90;;;19.30;34.50;;;;;;5064849;28;20537;-85
2022/03/07 11:00:06;;;;;;;1.95;0.82;;;19.20;34.30;;;;;;5014919;28;20184;-84
2022/03/07 11:02:39;;;;;;;0.80;0.80;;;19.30;34.20;;;;;;5031104;28;20180;-85
2022/03/07 11:05:10;;;;;;;1.10;0.90;;;19.30;34.30;;;;;;5064976;28;20195;-86
2022/03/07 11:07:38;;;;;;;0.90;0.80;;;19.20;34.30;;;;;;5031007;28;20307;-83
2022/03/07 11:10:09;;;;;;;2.38;1.02;;;19.30;34.40;;;;;;5083861;28;20161;-86
2022/03/07 11:12:39;;;;;;;1.00;0.82;;;19.20;34.40;;;;;;5017141;28;20207;-86
2022/03/07 11:15:08;;;;;;;0.93;0.82;;;19.20;34.60;;;;;;5030148;28;20240;-82
2022/03/07 11:17:47;;;;;;;0.77;0.70;;;19.30;34.20;;;;;;5100604;28;20206;-83
2022/03/07 11:20:14;;;;;;;4.30;0.88;;;19.30;34.20;;;;;;5013073;28;20275;-83
2022/03/07 11:22:40;;;;;;;1.30;1.00;;;19.30;34.20;;;;;;5080115;28;20647;-88
2022/03/07 11:25:10;;;;;;;0.90;0.90;;;19.30;34.20;;;;;;5067599;28;20214;-84
2022/03/07 11:27:41;;;;;;;1.90;0.80;;;19.30;34.20;;;;;;5051281;28;20220;-86
2022/03/07 11:30:18;;;;;;;0.82;0.63;;;19.30;34.20;;;;;;5016285;28;20180;-85
2022/03/07 11:32:44;;;;;;;0.65;0.63;;;19.30;34.10;;;;;;5069714;28;20722;-86
2022/03/07 11:35:11;;;;;;;2.05;0.80;;;19.40;34.00;;;;;;5069205;28;20220;-85
2022/03/07 11:37:43;;;;;;;2.05;0.88;;;19.40;34.00;;;;;;5063958;28;20267;-85
2022/03/07 11:40:20;;;;;;;0.60;0.60;;;19.50;33.80;;;;;;5031653;28;20207;-85
2022/03/07 11:42:47;;;;;;;1.15;0.90;;;19.60;33.70;;;;;;5064775;28;20615;-84
2022/03/07 11:45:21;;;;;;;2.13;0.80;;;19.60;33.90;;;;;;5064988;28;20161;-84
2022/03/07 11:47:48;;;;;;;2.60;1.02;;;19.60;33.80;;;;;;5032807;28;20216;-83
2022/03/07 11:50:20;;;;;;;1.60;0.70;;;19.50;33.90;;;;;;5083944;28;20164;-84
2022/03/07 11:52:46;;;;;;;2.55;1.02;;;19.50;33.80;;;;;;5032835;28;20180;-85
2022/03/07 11:55:16;;;;;;;0.73;0.70;;;19.50;33.70;;;;;;5066529;28;20165;-84
2022/03/07 11:57:47;;;;;;;0.80;0.63;;;19.50;33.50;;;;;;5065094;28;20173;-86
2022/03/07 12:00:21;;;;;;;1.35;0.70;;;19.60;33.40;;;;;;5017760;28;20199;-86
2022/03/07 12:02:53;;;;;;;0.85;0.70;;;19.60;33.30;;;;;;5048418;28;20173;-85
2022/03/07 12:05:28;;;;;;;1.02;0.90;;;19.60;33.60;;;;;;5029825;28;20176;-86
2022/03/07 12:08:13;;;;;;;1.10;0.88;;;19.50;33.50;;;;;;5032528;28;20215;-86
2022/03/07 12:10:55;;;;;;;1.13;0.73;;;19.60;33.50;;;;;;5021331;28;20180;-84
2022/03/07 12:13:22;;;;;;;1.10;0.70;;;19.50;33.70;;;;;;5079979;28;20574;-86
2022/03/07 12:15:52;;;;;;;1.77;0.90;;;19.50;33.70;;;;;;5031385;28;20625;-83
2022/03/07 12:18:23;;;;;;;2.05;0.65;;;19.50;33.60;;;;;;5016172;28;20225;-84
2022/03/07 12:20:55;;;;;;;2.70;0.93;;;19.50;33.60;;;;;;5044908;28;20176;-87
2022/03/07 12:23:24;;;;;;;0.80;0.70;;;19.50;33.80;;;;;;5029182;28;20644;-84
2022/03/07 12:26:05;;;;;;;3.72;0.73;;;19.40;33.90;;;;;;5045873;28;20259;-85
2022/03/07 12:28:34;;;;;;;1.00;0.70;;;19.40;33.80;;;;;;5061684;28;20231;-86
2022/03/07 12:31:01;;;;;;;0.82;0.82;;;19.40;33.90;;;;;;5044475;28;20195;-84
2022/03/07 12:33:27;;;;;;;1.15;0.82;;;19.40;33.80;;;;;;5011118;28;20200;-85
2022/03/07 12:36:03;;;;;;;0.80;0.70;;;19.40;34.00;;;;;;5046112;28;20173;-84
2022/03/07 12:38:31;;;;;;;1.20;0.70;;;19.30;34.00;;;;;;5044195;28;20187;-85
2022/03/07 12:41:00;;;;;;;0.95;0.70;;;19.40;34.00;;;;;;5029924;28;20181;-83
2022/03/07 12:43:29;;;;;;;0.82;0.73;;;19.30;34.20;;;;;;5027220;28;20177;-84
2022/03/07 12:45:57;;;;;;;0.70;0.70;;;19.40;34.00;;;;;;5024765;28;20189;-85
2022/03/07 12:48:36;;;;;;;1.70;0.80;;;19.40;33.90;;;;;;5024346;28;20217;-83
2022/03/07 12:51:08;;;;;;;1.20;0.80;;;19.40;33.90;;;;;;5057795;28;20214;-83
2022/03/07 12:53:47;;;;;;;0.85;0.80;;;19.40;33.90;;;;;;5008122;28;20185;-85